Aviation Digital Data Service (ADDS)

Output produced by METARs form (1957 UTC 25 July 2014)
found at http://aviationweather.gov/adds/metars/
 
KSLK 251726Z 2518/2618 24010G17KT P6SM BKN045 
     FM260000 23003KT P6SM SCT200 
     TEMPO 2607/2611 3SM BR SCT002 
     FM261300 23010KT P6SM SCT045 BKN120